Observation data for Dora on 11/17/2019      Previous  Date       Current Mesonet Observations  Soil Data  Daily Summary Page  Observations in Plain Language
KDR1 170600Z 26010KT 12/M02 A2999 RMK A01 T01191018  RH  039%=      5-min Rain = 0
KDR1 170605Z 27008KT 11/M02 A2999 RMK A01 T01141018  RH  040%=      5-min Rain = 0
KDR1 170610Z 27007KT 11/M02 A2999 RMK A01 T01091018  RH  041%=      5-min Rain = 0
KDR1 170615Z 27008KT 11/M02 A30 RMK A01 T01081018  RH  042%=      5-min Rain = 0
KDR1 170620Z 28009KT 11/M02 A30 RMK A01 T01111020  RH  040%=      5-min Rain = 0
KDR1 170625Z 28011KT 11/M02 A2999 RMK A01 T01141022  RH  039%=      5-min Rain = 0
KDR1 170630Z 28013KT 11/M02 A2999 RMK A01 T01131023  RH  039%=      5-min Rain = 0
KDR1 170635Z 28013KT 11/M02 A2999 RMK A01 T01141022  RH  039%=      5-min Rain = 0
KDR1 170640Z 28013KT 11/M02 A30 RMK A01 T01111022  RH  040%=      5-min Rain = 0
KDR1 170645Z 29015G20KT 12/M03 A3001 RMK A01 T01151026  RH  038%=      5-min Rain = 0
KDR1 170650Z 29013KT 12/M03 A3001 RMK A01 T01211030  RH  035%=      5-min Rain = 0
KDR1 170655Z 30014G19KT 12/M03 A3001 RMK A01 T01181030  RH  036%=      5-min Rain = 0
KDR1 170700Z 30014KT 12/M03 A3001 RMK A01 T01161029  RH  036%=      5-min Rain = 0
KDR1 170705Z 31013KT 11/M03 A3002 RMK A01 T01071027  RH  039%=      5-min Rain = 0
KDR1 170710Z 31013KT 10/M03 A3002 RMK A01 T01011025  RH  041%=      5-min Rain = 0
KDR1 170715Z 32012KT 10/M03 A3003 RMK A01 T00971025  RH  043%=      5-min Rain = 0
KDR1 170720Z 33012KT 09/M03 A3003 RMK A01 T00931025  RH  044%=      5-min Rain = 0
KDR1 170725Z 34009KT 09/M02 A3003 RMK A01 T00861024  RH  046%=      5-min Rain = 0
KDR1 170730Z 34008KT 08/M02 A3004 RMK A01 T00781023  RH  049%=      5-min Rain = 0
KDR1 170735Z 34009KT 07/M02 A3004 RMK A01 T00741022  RH  051%=      5-min Rain = 0
KDR1 170740Z 33010KT 07/M02 A3004 RMK A01 T00721021  RH  052%=      5-min Rain = 0
KDR1 170745Z 33012KT 07/M02 A3004 RMK A01 T00741020  RH  052%=      5-min Rain = 0
KDR1 170750Z 34012KT 08/M02 A3004 RMK A01 T00751020  RH  052%=      5-min Rain = 0
KDR1 170755Z 34012KT 08/M02 A3004 RMK A01 T00751020  RH  051%=      5-min Rain = 0
KDR1 170800Z 33013KT 07/M02 A3005 RMK A01 T00731020  RH  052%=      5-min Rain = 0
KDR1 170805Z 34013G18KT 07/M02 A3005 RMK A01 T00731021  RH  051%=      5-min Rain = 0
KDR1 170810Z 34012KT 07/M02 A3005 RMK A01 T00731023  RH  051%=      5-min Rain = 0
KDR1 170815Z 35012KT 07/M02 A3005 RMK A01 T00741024  RH  050%=      5-min Rain = 0
KDR1 170820Z 35012KT 07/M03 A3005 RMK A01 T00741026  RH  049%=      5-min Rain = 0
KDR1 170825Z 35012G17KT 08/M03 A3005 RMK A01 T00781028  RH  047%=      5-min Rain = 0
KDR1 170830Z 35012KT 08/M03 A3006 RMK A01 T00771029  RH  047%=      5-min Rain = 0
KDR1 170835Z 35012KT 08/M03 A3006 RMK A01 T00771030  RH  047%=      5-min Rain = 0
KDR1 170840Z 35013KT 08/M03 A3006 RMK A01 T00771030  RH  047%=      5-min Rain = 0
KDR1 170845Z 35012KT 08/M03 A3006 RMK A01 T00761031  RH  047%=      5-min Rain = 0
KDR1 170850Z 00012KT 08/M03 A3007 RMK A01 T00761031  RH  047%=      5-min Rain = 0
KDR1 170855Z 00016G22KT 08/M03 A3008 RMK A01 T00811030  RH  046%=      5-min Rain = 0
KDR1 170900Z 01016KT 09/M03 A3008 RMK A01 T00871031  RH  043%=      5-min Rain = 0
KDR1 170905Z 01017G23KT 09/M03 A3008 RMK A01 T00871032  RH  043%=      5-min Rain = 0
KDR1 170910Z 01017G23KT 09/M03 A3009 RMK A01 T00881033  RH  043%=      5-min Rain = 0
KDR1 170915Z 01018KT 09/M03 A3009 RMK A01 T00871034  RH  042%=      5-min Rain = 0
KDR1 170920Z 01017G23KT 09/M03 A301 RMK A01 T00871034  RH  043%=      5-min Rain = 0
KDR1 170925Z 01016G21KT 08/M03 A301 RMK A01 T00841034  RH  043%=      5-min Rain = 0
KDR1 170930Z 00015G20KT 08/M03 A301 RMK A01 T00821034  RH  044%=      5-min Rain = 0
KDR1 170935Z 01014G19KT 08/M03 A301 RMK A01 T00801034  RH  045%=      5-min Rain = 0
KDR1 170940Z 00014G20KT 08/M04 A301 RMK A01 T00791035  RH  045%=      5-min Rain = 0
KDR1 170945Z 01015G20KT 08/M04 A301 RMK A01 T00781035  RH  045%=      5-min Rain = 0
KDR1 170950Z 00015G21KT 08/M04 A301 RMK A01 T00761035  RH  045%=      5-min Rain = 0
KDR1 170955Z 00013KT 07/M04 A301 RMK A01 T00731035  RH  046%=      5-min Rain = 0
KDR1 171000Z 00014G19KT 07/M03 A301 RMK A01 T00711034  RH  047%=      5-min Rain = 0
KDR1 171005Z 00013KT 07/M03 A301 RMK A01 T00691034  RH  048%=      5-min Rain = 0
KDR1 171010Z 36012KT 07/M03 A3011 RMK A01 T00661034  RH  049%=      5-min Rain = 0
KDR1 171015Z 36012G18KT 07/M03 A3011 RMK A01 T00651033  RH  050%=      5-min Rain = 0
KDR1 171020Z 00012KT 06/M03 A3012 RMK A01 T00631032  RH  051%=      5-min Rain = 0
KDR1 171025Z 01015G22KT 06/M03 A3012 RMK A01 T00641029  RH  052%=      5-min Rain = 0
KDR1 171030Z 01016KT 07/M03 A3013 RMK A01 T00661026  RH  052%=      5-min Rain = 0
KDR1 171035Z 01014G19KT 07/M03 A3013 RMK A01 T00651025  RH  053%=      5-min Rain = 0
KDR1 171040Z 01014KT 06/M03 A3013 RMK A01 T00621025  RH  054%=      5-min Rain = 0
KDR1 171045Z 01014KT 06/M02 A3014 RMK A01 T00601024  RH  055%=      5-min Rain = 0
KDR1 171050Z 00011KT 06/M03 A3014 RMK A01 T00551025  RH  057%=      5-min Rain = 0
KDR1 171055Z 35009KT 05/M03 A3014 RMK A01 T00461028  RH  059%=      5-min Rain = 0
KDR1 171100Z 35012G18KT 05/M03 A3014 RMK A01 T00461027  RH  059%=      5-min Rain = 0
KDR1 171105Z 36013KT 05/M03 A3015 RMK A01 T00511026  RH  058%=      5-min Rain = 0
KDR1 171110Z 00013G18KT 05/M03 A3015 RMK A01 T00481025  RH  059%=      5-min Rain = 0
KDR1 171115Z 01015G22KT 05/M02 A3015 RMK A01 T00521023  RH  059%=      5-min Rain = 0
KDR1 171120Z 01016G21KT 05/M02 A3015 RMK A01 T00541021  RH  059%=      5-min Rain = 0
KDR1 171125Z 01014KT 05/M02 A3015 RMK A01 T00531021  RH  060%=      5-min Rain = 0
KDR1 171130Z 00015KT 05/M02 A3015 RMK A01 T00511020  RH  061%=      5-min Rain = 0
KDR1 171135Z 00015KT 05/M02 A3015 RMK A01 T00511019  RH  061%=      5-min Rain = 0
KDR1 171140Z 00014G19KT 05/M02 A3015 RMK A01 T00491020  RH  062%=      5-min Rain = 0
KDR1 171145Z 00014G19KT 05/M02 A3015 RMK A01 T00471019  RH  063%=      5-min Rain = 0
KDR1 171150Z 01014KT 05/M02 A3015 RMK A01 T00471018  RH  063%=      5-min Rain = 0
KDR1 171155Z 00013KT 05/M02 A3015 RMK A01 T00471018  RH  063%=      5-min Rain = 0
KDR1 171200Z 36014G19KT 05/M02 A3015 RMK A01 T00491017  RH  063%=      5-min Rain = 0
KDR1 171205Z 00014KT 05/M02 A3016 RMK A01 T00461018  RH  064%=      5-min Rain = 0
KDR1 171210Z 00015G20KT 05/M02 A3016 RMK A01 T00481018  RH  063%=      5-min Rain = 0
KDR1 171215Z 36012KT 04/M02 A3016 RMK A01 T00431020  RH  064%=      5-min Rain = 0
KDR1 171220Z 35013G18KT 04/M02 A3017 RMK A01 T00401020  RH  065%=      5-min Rain = 0
KDR1 171225Z 35011KT 04/M02 A3017 RMK A01 T00381020  RH  066%=      5-min Rain = 0
KDR1 171230Z 35010KT 03/M02 A3017 RMK A01 T00341021  RH  068%=      5-min Rain = 0
KDR1 171235Z 35011KT 04/M02 A3018 RMK A01 T00351019  RH  068%=      5-min Rain = 0
KDR1 171240Z 00013KT 04/M02 A3018 RMK A01 T00371017  RH  068%=      5-min Rain = 0
KDR1 171245Z 35012KT 04/M02 A3018 RMK A01 T00391017  RH  067%=      5-min Rain = 0
KDR1 171250Z 35010KT 03/M02 A3019 RMK A01 T00331019  RH  069%=      5-min Rain = 0
KDR1 171255Z 36012G18KT 03/M02 A3019 RMK A01 T00301018  RH  071%=      5-min Rain = 0
KDR1 171300Z 00015G20KT 04/M01 A3019 RMK A01 T00431013  RH  068%=      5-min Rain = 0
KDR1 171305Z 00013KT 04/M02 A3019 RMK A01 T00411015  RH  068%=      5-min Rain = 0
KDR1 171310Z 01013KT 04/M01 A302 RMK A01 T00391014  RH  069%=      5-min Rain = 0
KDR1 171315Z 01015KT 04/M01 A302 RMK A01 T00401013  RH  069%=      5-min Rain = 0
KDR1 171320Z 01015KT 04/M01 A302 RMK A01 T00401012  RH  070%=      5-min Rain = 0
KDR1 171325Z 01014KT 04/M01 A302 RMK A01 T00401011  RH  070%=      5-min Rain = 0
KDR1 171330Z 01014KT 04/M01 A302 RMK A01 T00401011  RH  070%=      5-min Rain = 0
KDR1 171335Z 01013KT 04/M01 A3021 RMK A01 T00401011  RH  070%=      5-min Rain = 0
KDR1 171340Z 01013KT 04/M01 A3021 RMK A01 T00391010  RH  071%=      5-min Rain = 0
KDR1 171345Z 01013KT 04/M01 A3021 RMK A01 T00411008  RH  071%=      5-min Rain = 0
KDR1 171350Z 00012KT 04/M01 A3022 RMK A01 T00421008  RH  071%=      5-min Rain = 0
KDR1 171355Z 01010KT 04/M01 A3022 RMK A01 T00431008  RH  071%=      5-min Rain = 0
KDR1 171400Z 01010KT 04/M01 A3022 RMK A01 T00441006  RH  071%=      5-min Rain = 0
KDR1 171405Z 01010KT 05/M01 A3022 RMK A01 T00451005  RH  071%=      5-min Rain = 0
KDR1 171410Z 01009KT 05/M01 A3022 RMK A01 T00471005  RH  070%=      5-min Rain = 0
KDR1 171415Z 01010G15KT 05/M00 A3022 RMK A01 T00481004  RH  070%=      5-min Rain = 0
KDR1 171420Z 01010KT 05/M00 A3023 RMK A01 T00501002  RH  070%=      5-min Rain = 0
KDR1 171425Z 01012KT 05/M00 A3022 RMK A01 T00521001  RH  069%=      5-min Rain = 0
KDR1 171430Z 01010KT 06/00 A3023 RMK A01 T005500-0  RH  068%=      5-min Rain = 0
KDR1 171435Z 00009KT 06/00 A3023 RMK A01 T00580001  RH  067%=      5-min Rain = 0
KDR1 171440Z 01012KT 06/00 A3023 RMK A01 T00590001  RH  067%=      5-min Rain = 0
KDR1 171445Z 02013G18KT 06/00 A3023 RMK A01 T00590002  RH  067%=      5-min Rain = 0
KDR1 171450Z 02014KT 06/00 A3023 RMK A01 T00610002  RH  067%=      5-min Rain = 0
KDR1 171455Z 02014KT 06/00 A3023 RMK A01 T00630003  RH  066%=      5-min Rain = 0
KDR1 171500Z 02015G20KT 06/00 A3023 RMK A01 T00640003  RH  066%=      5-min Rain = 0
KDR1 171505Z 02015G21KT 07/00 A3023 RMK A01 T00650004  RH  066%=      5-min Rain = 0
KDR1 171510Z 02015KT 07/00 A3024 RMK A01 T00670004  RH  065%=      5-min Rain = 0
KDR1 171515Z 02013G18KT 07/01 A3024 RMK A01 T00680005  RH  065%=      5-min Rain = 0
KDR1 171520Z 02014KT 07/01 A3023 RMK A01 T00700005  RH  064%=      5-min Rain = 0
KDR1 171525Z 02015G20KT 07/01 A3023 RMK A01 T00720005  RH  063%=      5-min Rain = 0
KDR1 171530Z 03016G21KT 07/01 A3024 RMK A01 T00720005  RH  063%=      5-min Rain = 0
KDR1 171535Z 03013G18KT 08/01 A3024 RMK A01 T00750006  RH  063%=      5-min Rain = 0
KDR1 171540Z 02013KT 08/01 A3024 RMK A01 T00790007  RH  061%=      5-min Rain = 0
KDR1 171545Z 03015KT 08/01 A3024 RMK A01 T00790006  RH  061%=      5-min Rain = 0
KDR1 171550Z 02015KT 08/01 A3024 RMK A01 T00790006  RH  061%=      5-min Rain = 0
KDR1 171555Z 03015KT 08/01 A3024 RMK A01 T00810007  RH  060%=      5-min Rain = 0
KDR1 171600Z 03014KT 08/01 A3024 RMK A01 T00830007  RH  059%=      5-min Rain = 0
KDR1 171605Z 03013G18KT 09/01 A3024 RMK A01 T00850007  RH  059%=      5-min Rain = 0
KDR1 171610Z 04011KT 09/01 A3024 RMK A01 T00880008  RH  058%=      5-min Rain = 0
KDR1 171615Z 03009KT 09/01 A3024 RMK A01 T00870007  RH  058%=      5-min Rain = 0
KDR1 171620Z 03009G14KT 09/01 A3024 RMK A01 T00890008  RH  057%=      5-min Rain = 0
KDR1 171625Z 03011KT 09/01 A3024 RMK A01 T00910007  RH  057%=      5-min Rain = 0
KDR1 171630Z 03012KT 09/01 A3024 RMK A01 T00890007  RH  057%=      5-min Rain = 0
KDR1 171635Z 03011KT 09/01 A3024 RMK A01 T00900008  RH  057%=      5-min Rain = 0
KDR1 171640Z 02011KT 09/01 A3024 RMK A01 T00920007  RH  056%=      5-min Rain = 0
KDR1 171645Z 03010KT 10/01 A3024 RMK A01 T00960009  RH  055%=      5-min Rain = 0
KDR1 171650Z 04011KT 10/01 A3024 RMK A01 T00980009  RH  054%=      5-min Rain = 0
KDR1 171655Z 04010KT 10/01 A3024 RMK A01 T00970009  RH  055%=      5-min Rain = 0
KDR1 171700Z 03011KT 10/01 A3024 RMK A01 T00980008  RH  054%=      5-min Rain = 0
KDR1 171705Z 03010KT 10/01 A3024 RMK A01 T00990009  RH  054%=      5-min Rain = 0
KDR1 171710Z 04008KT 10/01 A3024 RMK A01 T01010009  RH  054%=      5-min Rain = 0
KDR1 171715Z 03011KT 10/01 A3023 RMK A01 T01030009  RH  053%=      5-min Rain = 0
KDR1 171720Z 03009KT 11/01 A3023 RMK A01 T01050010  RH  052%=      5-min Rain = 0
KDR1 171725Z 02011KT 11/01 A3023 RMK A01 T01070010  RH  052%=      5-min Rain = 0
KDR1 171730Z 02009KT 11/01 A3023 RMK A01 T01090010  RH  051%=      5-min Rain = 0
KDR1 171735Z 03010KT 11/01 A3022 RMK A01 T01080010  RH  051%=      5-min Rain = 0
KDR1 171740Z 03009G14KT 11/01 A3022 RMK A01 T01100010  RH  051%=      5-min Rain = 0
KDR1 171745Z 02009KT 11/01 A3022 RMK A01 T01110010  RH  050%=      5-min Rain = 0
KDR1 171750Z 02009G14KT 11/01 A3022 RMK A01 T01140010  RH  049%=      5-min Rain = 0
KDR1 171755Z 02009KT 11/01 A3021 RMK A01 T01120009  RH  050%=      5-min Rain = 0
KDR1 171800Z 03009KT 12/01 A3021 RMK A01 T01160009  RH  049%=      5-min Rain = 0
KDR1 171805Z 04008KT 12/01 A3021 RMK A01 T01150009  RH  049%=      5-min Rain = 0
KDR1 171810Z 03007KT 12/01 A3021 RMK A01 T01170009  RH  048%=      5-min Rain = 0
KDR1 171815Z 03007G12KT 12/01 A3021 RMK A01 T01210009  RH  047%=      5-min Rain = 0
KDR1 171820Z 04007G14KT 12/01 A302 RMK A01 T01210008  RH  047%=      5-min Rain = 0
KDR1 171825Z 06007KT 12/01 A302 RMK A01 T01210008  RH  047%=      5-min Rain = 0
KDR1 171830Z 05007KT 12/01 A302 RMK A01 T01210009  RH  047%=      5-min Rain = 0
KDR1 171835Z 04006KT 13/01 A3019 RMK A01 T01250008  RH  045%=      5-min Rain = 0
KDR1 171840Z 04007KT 12/01 A3019 RMK A01 T01230007  RH  046%=      5-min Rain = 0
KDR1 171845Z 03005KT 13/01 A3019 RMK A01 T01270009  RH  045%=      5-min Rain = 0
KDR1 171850Z 03008KT 13/01 A3019 RMK A01 T01310008  RH  044%=      5-min Rain = 0
KDR1 171855Z 02006KT 13/01 A3019 RMK A01 T01260007  RH  045%=      5-min Rain = 0
KDR1 171900Z 00009KT 13/01 A3019 RMK A01 T01320007  RH  043%=      5-min Rain = 0
KDR1 171905Z 03006KT 13/01 A3019 RMK A01 T01280007  RH  044%=      5-min Rain = 0
KDR1 171910Z 01007KT 13/01 A3019 RMK A01 T01310007  RH  043%=      5-min Rain = 0
KDR1 171915Z 36004KT 13/01 A3019 RMK A01 T01340006  RH  042%=      5-min Rain = 0
KDR1 171920Z 04003G8KT 13/01 A3018 RMK A01 T01330005  RH  042%=      5-min Rain = 0
KDR1 171925Z 03006KT 14/01 A3018 RMK A01 T01360008  RH  042%=      5-min Rain = 0
KDR1 171930Z 01005KT 14/01 A3018 RMK A01 T01380008  RH  042%=      5-min Rain = 0
KDR1 171935Z 01004G10KT 14/01 A3017 RMK A01 T01380009  RH  042%=      5-min Rain = 0
KDR1 171940Z 35008KT 14/01 A3017 RMK A01 T01410008  RH  041%=      5-min Rain = 0
KDR1 171945Z 34008KT 14/01 A3017 RMK A01 T01370007  RH  042%=      5-min Rain = 0
KDR1 171950Z 33007KT 14/01 A3017 RMK A01 T01370008  RH  042%=      5-min Rain = 0
KDR1 171955Z 01005G10KT 14/01 A3017 RMK A01 T01410009  RH  041%=      5-min Rain = 0
KDR1 172000Z 01005KT 14/01 A3017 RMK A01 T01420007  RH  040%=      5-min Rain = 0
KDR1 172005Z 01007KT 14/00 A3016 RMK A01 T01430004  RH  039%=      5-min Rain = 0
KDR1 172010Z 00003KT 14/00 A3016 RMK A01 T01360003  RH  041%=      5-min Rain = 0
KDR1 172015Z 00002KT 14/00 A3015 RMK A01 T01400004  RH  040%=      5-min Rain = 0
KDR1 172020Z 32003KT 14/01 A3015 RMK A01 T01400005  RH  040%=      5-min Rain = 0
KDR1 172025Z 24003KT 14/00 A3015 RMK A01 T01420004  RH  039%=      5-min Rain = 0
KDR1 172030Z 18002KT 14/01 A3015 RMK A01 T01410005  RH  040%=      5-min Rain = 0
KDR1 172035Z 27002KT 15/01 A3015 RMK A01 T01490006  RH  038%=      5-min Rain = 0
KDR1 172040Z 33003KT 15/00 A3015 RMK A01 T01480004  RH  038%=      5-min Rain = 0
KDR1 172045Z 35002KT 15/00 A3014 RMK A01 T01460003  RH  038%=      5-min Rain = 0
KDR1 172050Z 01002KT 15/00 A3014 RMK A01 T01460004  RH  038%=      5-min Rain = 0
KDR1 172055Z 33001KT 15/00 A3014 RMK A01 T01470003  RH  038%=      5-min Rain = 0
KDR1 172100Z 29004KT 15/00 A3014 RMK A01 T01500003  RH  037%=      5-min Rain = 0
KDR1 172105Z 29004KT 15/00 A3014 RMK A01 T01480002  RH  037%=      5-min Rain = 0
KDR1 172110Z 27003KT 15/00 A3013 RMK A01 T01470001  RH  037%=      5-min Rain = 0
KDR1 172115Z 17004KT 15/00 A3013 RMK A01 T01500002  RH  037%=      5-min Rain = 0
KDR1 172120Z 16002KT 15/00 A3013 RMK A01 T01530002  RH  036%=      5-min Rain = 0
KDR1 172125Z 26004KT 16/00 A3013 RMK A01 T01560003  RH  036%=      5-min Rain = 0
KDR1 172130Z 29004KT 15/00 A3013 RMK A01 T01480002  RH  037%=      5-min Rain = 0
KDR1 172135Z 30004KT 15/00 A3013 RMK A01 T01470003  RH  038%=      5-min Rain = 0
KDR1 172140Z 25004G9KT 15/00 A3013 RMK A01 T01490003  RH  037%=      5-min Rain = 0
KDR1 172145Z 24007KT 15/00 A3013 RMK A01 T01500001  RH  036%=      5-min Rain = 0
KDR1 172150Z 25008KT 15/00 A3012 RMK A01 T01490002  RH  037%=      5-min Rain = 0
KDR1 172155Z 25004KT 15/00 A3012 RMK A01 T01510003  RH  037%=      5-min Rain = 0
KDR1 172200Z 25005KT 15/00 A3012 RMK A01 T01510002  RH  037%=      5-min Rain = 0
KDR1 172205Z 23005KT 15/00 A3012 RMK A01 T01510003  RH  037%=      5-min Rain = 0
KDR1 172210Z 22007G12KT 15/00 A3012 RMK A01 T015200-0  RH  036%=      5-min Rain = 0
KDR1 172215Z 23006KT 15/M00 A3011 RMK A01 T01511002  RH  035%=      5-min Rain = 0
KDR1 172220Z 25008KT 15/M00 A3011 RMK A01 T01491002  RH  036%=      5-min Rain = 0
KDR1 172225Z 25007KT 15/M00 A3012 RMK A01 T01491001  RH  036%=      5-min Rain = 0
KDR1 172230Z 25006KT 15/M00 A3012 RMK A01 T01481001  RH  036%=      5-min Rain = 0
KDR1 172235Z 24006KT 15/M00 A3012 RMK A01 T01491002  RH  036%=      5-min Rain = 0
KDR1 172240Z 25007KT 15/M00 A3011 RMK A01 T01481003  RH  036%=      5-min Rain = 0
KDR1 172245Z 25008KT 15/M00 A3011 RMK A01 T01481004  RH  036%=      5-min Rain = 0
KDR1 172250Z 25006KT 15/M00 A3011 RMK A01 T01471004  RH  036%=      5-min Rain = 0
KDR1 172255Z 24007KT 15/M00 A3011 RMK A01 T01461004  RH  036%=      5-min Rain = 0
KDR1 172300Z 24005KT 15/M00 A3011 RMK A01 T01471004  RH  036%=      5-min Rain = 0
KDR1 172305Z 24005KT 15/M00 A3011 RMK A01 T01461004  RH  036%=      5-min Rain = 0
KDR1 172310Z 21004KT 15/M00 A3012 RMK A01 T01461004  RH  036%=      5-min Rain = 0
KDR1 172315Z 20004KT 14/M00 A3012 RMK A01 T01441003  RH  037%=      5-min Rain = 0
KDR1 172320Z 19004KT 14/M00 A3012 RMK A01 T01391004  RH  038%=      5-min Rain = 0
KDR1 172325Z 18004KT 13/M00 A3012 RMK A01 T01341004  RH  039%=      5-min Rain = 0
KDR1 172330Z 20004KT 13/M00 A3011 RMK A01 T01271004  RH  041%=      5-min Rain = 0
KDR1 172335Z 20004KT 12/M00 A3011 RMK A01 T01221004  RH  042%=      5-min Rain = 0
KDR1 172340Z 20004KT 12/M00 A3011 RMK A01 T01201003  RH  043%=      5-min Rain = 0
KDR1 172345Z 19004KT 12/M00 A3011 RMK A01 T01151004  RH  044%=      5-min Rain = 0
KDR1 172350Z 18004KT 11/M00 A3011 RMK A01 T01131004  RH  045%=      5-min Rain = 0
KDR1 172355Z 18004KT 11/M01 A3011 RMK A01 T01071006  RH  046%=      5-min Rain = 0
KDR1 180000Z 19005KT 10/M01 A3011 RMK A01 T01011006  RH  048%=      5-min Rain = 0
KDR1 180005Z 18004KT 10/M01 A3011 RMK A01 T00991006  RH  049%=      5-min Rain = 0
KDR1 180010Z 17003KT 10/M00 A3011 RMK A01 T01021003  RH  048%=      5-min Rain = 0
KDR1 180015Z 18003KT 11/M00 A3011 RMK A01 T01081003  RH  047%=      5-min Rain = 0
KDR1 180020Z 18004KT 11/M00 A3011 RMK A01 T01061004  RH  047%=      5-min Rain = 0
KDR1 180025Z 19005KT 09/M01 A3011 RMK A01 T00921008  RH  050%=      5-min Rain = 0
KDR1 180030Z 19005KT 08/M01 A3011 RMK A01 T00831008  RH  053%=      5-min Rain = 0
KDR1 180035Z 18006KT 09/M01 A3011 RMK A01 T00861007  RH  053%=      5-min Rain = 0
KDR1 180040Z 18006KT 08/M01 A3011 RMK A01 T00801008  RH  055%=      5-min Rain = 0
KDR1 180045Z 19006KT 08/M01 A3011 RMK A01 T00781007  RH  055%=      5-min Rain = 0
KDR1 180050Z 19006KT 08/M01 A3011 RMK A01 T00771008  RH  055%=      5-min Rain = 0
KDR1 180055Z 19007KT 07/M01 A3011 RMK A01 T00731009  RH  057%=      5-min Rain = 0
KDR1 180100Z 20007KT 06/M01 A3011 RMK A01 T00641011  RH  059%=      5-min Rain = 0
KDR1 180105Z 19006KT 06/M01 A3011 RMK A01 T00641010  RH  060%=      5-min Rain = 0
KDR1 180110Z 19007KT 06/M01 A3011 RMK A01 T00611011  RH  060%=      5-min Rain = 0
KDR1 180115Z 19007KT 06/M01 A3011 RMK A01 T00601011  RH  061%=      5-min Rain = 0
KDR1 180120Z 19008KT 07/M01 A3011 RMK A01 T00651008  RH  060%=      5-min Rain = 0
KDR1 180125Z 19008KT 06/M01 A3011 RMK A01 T00611012  RH  060%=      5-min Rain = 0
KDR1 180130Z 20009KT 06/M01 A3011 RMK A01 T00621008  RH  061%=      5-min Rain = 0
KDR1 180135Z 20009KT 08/M01 A3011 RMK A01 T00751006  RH  057%=      5-min Rain = 0
KDR1 180140Z 19007KT 07/M01 A3011 RMK A01 T00701009  RH  058%=      5-min Rain = 0
KDR1 180145Z 18008KT 06/M01 A3011 RMK A01 T00641010  RH  060%=      5-min Rain = 0
KDR1 180150Z 19008KT 07/M01 A3012 RMK A01 T00651008  RH  060%=      5-min Rain = 0
KDR1 180155Z 20009KT 07/M01 A3012 RMK A01 T00711007  RH  058%=      5-min Rain = 0
KDR1 180200Z 20009KT 07/M01 A3012 RMK A01 T00721008  RH  058%=      5-min Rain = 0
KDR1 180205Z 20010KT 07/M01 A3012 RMK A01 T00721007  RH  058%=      5-min Rain = 0
KDR1 180210Z 20011KT 08/M00 A3012 RMK A01 T00781004  RH  057%=      5-min Rain = 0
KDR1 180215Z 20010KT 08/M00 A3012 RMK A01 T00831004  RH  055%=      5-min Rain = 0
KDR1 180220Z 20010KT 08/M00 A3012 RMK A01 T00831004  RH  055%=      5-min Rain = 0
KDR1 180225Z 20010KT 08/M01 A3013 RMK A01 T00821005  RH  055%=      5-min Rain = 0
KDR1 180230Z 20010KT 08/M01 A3013 RMK A01 T00811005  RH  055%=      5-min Rain = 0
KDR1 180235Z 20011KT 08/M01 A3013 RMK A01 T00801005  RH  055%=      5-min Rain = 0
KDR1 180240Z 20011KT 08/M01 A3013 RMK A01 T00781005  RH  056%=      5-min Rain = 0
KDR1 180245Z 20011KT 08/M01 A3012 RMK A01 T00751006  RH  057%=      5-min Rain = 0
KDR1 180250Z 20010KT 07/M01 A3013 RMK A01 T00711006  RH  058%=      5-min Rain = 0
KDR1 180255Z 20011KT 08/M00 A3013 RMK A01 T00771004  RH  057%=      5-min Rain = 0
KDR1 180300Z 20012KT 08/M00 A3013 RMK A01 T00791004  RH  056%=      5-min Rain = 0
KDR1 180305Z 20011KT 08/M00 A3013 RMK A01 T00781004  RH  056%=      5-min Rain = 0
KDR1 180310Z 20012KT 08/M01 A3013 RMK A01 T00771005  RH  057%=      5-min Rain = 0
KDR1 180315Z 20012KT 08/M01 A3013 RMK A01 T00751005  RH  057%=      5-min Rain = 0
KDR1 180320Z 20013KT 08/M00 A3013 RMK A01 T00771004  RH  057%=      5-min Rain = 0
KDR1 180325Z 20013KT 08/M01 A3013 RMK A01 T00751005  RH  057%=      5-min Rain = 0
KDR1 180330Z 20012KT 07/M01 A3013 RMK A01 T00741005  RH  058%=      5-min Rain = 0
KDR1 180335Z 20012KT 07/M01 A3012 RMK A01 T00701006  RH  059%=      5-min Rain = 0
KDR1 180340Z 21013KT 07/M01 A3012 RMK A01 T00681006  RH  060%=      5-min Rain = 0
KDR1 180345Z 21012KT 06/M01 A3012 RMK A01 T00641006  RH  061%=      5-min Rain = 0
KDR1 180350Z 20012KT 06/M01 A3012 RMK A01 T00641005  RH  062%=      5-min Rain = 0
KDR1 180355Z 20011KT 07/M01 A3012 RMK A01 T00651005  RH  062%=      5-min Rain = 0
KDR1 180400Z 20010KT 07/M00 A3012 RMK A01 T00651004  RH  062%=      5-min Rain = 0
KDR1 180405Z 20010KT 07/M00 A3012 RMK A01 T00651004  RH  062%=      5-min Rain = 0
KDR1 180410Z 20010KT 06/M01 A3011 RMK A01 T00621005  RH  063%=      5-min Rain = 0
KDR1 180415Z 21009KT 06/M01 A3012 RMK A01 T00621005  RH  063%=      5-min Rain = 0
KDR1 180420Z 20009KT 06/M01 A3011 RMK A01 T00601005  RH  064%=      5-min Rain = 0
KDR1 180425Z 20009KT 06/M00 A3011 RMK A01 T00621004  RH  063%=      5-min Rain = 0
KDR1 180430Z 20010KT 06/M00 A3011 RMK A01 T00621004  RH  063%=      5-min Rain = 0
KDR1 180435Z 20011KT 06/M00 A3011 RMK A01 T00611004  RH  064%=      5-min Rain = 0
KDR1 180440Z 20011KT 06/M00 A3011 RMK A01 T00601004  RH  064%=      5-min Rain = 0
KDR1 180445Z 20012KT 06/M00 A3011 RMK A01 T00621002  RH  064%=      5-min Rain = 0
KDR1 180450Z 21011KT 07/M00 A3011 RMK A01 T00661001  RH  063%=      5-min Rain = 0
KDR1 180455Z 20011KT 07/M00 A3011 RMK A01 T00681001  RH  062%=      5-min Rain = 0
KDR1 180500Z 20011KT 07/M00 A3011 RMK A01 T00661001  RH  063%=      5-min Rain = 0
KDR1 180505Z 20011KT 07/M00 A301 RMK A01 T00661002  RH  063%=      5-min Rain = 0
KDR1 180510Z 20012KT 07/M00 A301 RMK A01 T00651002  RH  063%=      5-min Rain = 0
KDR1 180515Z 20013G18KT 06/M00 A301 RMK A01 T00641003  RH  063%=      5-min Rain = 0
KDR1 180520Z 21013KT 07/M00 A301 RMK A01 T00671003  RH  062%=      5-min Rain = 0
KDR1 180525Z 21012KT 06/M00 A301 RMK A01 T00631004  RH  063%=      5-min Rain = 0
KDR1 180530Z 21012KT 06/M00 A301 RMK A01 T00611004  RH  064%=      5-min Rain = 0
KDR1 180535Z 21011KT 06/M00 A3009 RMK A01 T00601003  RH  064%=      5-min Rain = 0
KDR1 180540Z 21011KT 06/M00 A3009 RMK A01 T00611003  RH  064%=      5-min Rain = 0
KDR1 180545Z 21010KT 06/M00 A3009 RMK A01 T00591003  RH  065%=      5-min Rain = 0
KDR1 180550Z 21010KT 06/M00 A3009 RMK A01 T00591003  RH  065%=      5-min Rain = 0
KDR1 180555Z 21012KT 06/M00 A3008 RMK A01 T00601003  RH  065%=      5-min Rain = 0

Page generated in 0.009 seconds.